• Join FlightAware (Why Join?)
  • Login
  • US Flag 
11:19PM EDT


 

Airport Tracker/Info


-or-


 

Live Flight TrackerFlight Track Log ✈ ASQ5859 ✈ 23-Jul-2013 ✈ KBTV - KORD

Flight Track Log - Related Links

Times and Time Zones

All times are in EDT time to prevent confusion due to time zone crossing. See the ASQ5859 flight status page for this flight to view local times or setup timezone preferences in your user account.

Time Position Orientation Groundspeed Altitude Reporting Facility
EDT Latitude Longitude Course Direction KTS MPH feet Rate Location/Type
05:21PM 44.3758 -73.1458 198° South 230 265 3,900  Level Boston Center
05:22PM 44.3194 -73.1683 196° South 242 278 6,200 2,160 Climbing Boston Center
05:23PM 44.3396 -73.5074 256° West  Level FlightAware Approximate
05:23PM 44.2653 -73.1850 192° South 249 287 8,300  Level Boston Center
05:24PM 44.3191 -73.6200 256° West  Level FlightAware Approximate
05:24PM 44.2500 -73.2747 257° West 203 234 9,400  Level Boston Center
05:25PM 44.3013 -73.7334 258° West  Level FlightAware Approximate
05:25PM 44.2386 -73.3789 261° West 234 269 10,900  Level Boston Center
05:26PM 44.2253 -73.5003 261° West 291 335 11,600 960 Climbing Boston Center
05:27PM 44.2136 -73.6275 263° West 331 381 12,900 1,260 Climbing Boston Center
05:28PM 44.1997 -73.7461 261° West 349 402 14,200 1,200 Climbing Boston Center
05:29PM 44.1897 -73.8878 264° West 349 402 15,400 1,020 Climbing Boston Center
05:30PM 44.1756 -74.0233 262° West 354 407 16,300 840 Climbing Boston Center
05:31PM 44.1611 -74.1561 261° West 354 407 17,100 960 Climbing Boston Center
05:32PM 44.1464 -74.2917 261° West 354 407 18,300 960 Climbing Boston Center
05:33PM 44.1317 -74.4303 262° West 359 413 19,100 840 Climbing Boston Center
05:34PM 44.1186 -74.5714 263° West 365 420 20,000 840 Climbing Boston Center
05:35PM 44.1056 -74.7128 263° West 371 427 20,800 900 Climbing Boston Center
05:36PM 44.0900 -74.8536 261° West 371 427 21,900 1,680 Climbing Boston Center
05:37PM 44.0769 -74.9833 262° West 365 420 24,200 2,040 Climbing Boston Center
05:38PM 44.0633 -75.1186 262° West 338 389 26,000 1,320 Climbing Boston Center
05:39PM 44.0500 -75.2392 261° West 331 381 26,900 900 Climbing Boston Center
05:40PM 44.0367 -75.3658 262° West 331 381 27,900 900 Climbing Boston Center
05:41PM 44.0228 -75.4950 262° West 331 381 28,800 900 Climbing Boston Center
05:42PM 44.0067 -75.6242 260° West 331 381 29,800 900 Climbing Boston Center
05:43PM 43.9928 -75.7533 262° West 341 392 30,700 840 Climbing Boston Center
05:44PM 43.9783 -75.8853 261° West 346 398 31,700 900 Climbing Boston Center
05:45PM 43.9589 -76.0428 260° West 351 404 32,800 1,020 Climbing Boston Center
05:46PM 43.9464 -76.1747 263° West 351 404 33,800 900 Climbing Boston Center
05:47PM 43.9356 -76.3125 264° West 351 404 34,700 900 Climbing Boston Center
05:48PM 43.9247 -76.4444 264° West 351 404 35,700 600 Climbing Boston Center
05:49PM 43.9117 -76.5764 262° West 351 404 36,000 120 Climbing Boston Center
05:50PM 43.8833 -76.7333 256° West 360 414 36,000  Level Toronto Center
05:51PM 43.8667 -76.8833 261° West 390 449 36,000  Level Toronto Center
05:52PM 43.8500 -77.0167 260° West 390 449 36,000  Level Toronto Center
05:53PM 43.8333 -77.1667 261° West 370 426 36,000  Level Toronto Center
05:54PM 43.8167 -77.3000 260° West 360 414 36,000  Level Toronto Center
05:55PM 43.8167 -77.4333 270° West 360 414 36,000  Level Toronto Center
05:56PM 43.8000 -77.5833 261° West 370 426 36,000  Level Toronto Center
05:57PM 43.7833 -77.7167 260° West 360 414 36,000  Level Toronto Center
05:58PM 43.7667 -77.8500 260° West 350 403 36,000  Level Toronto Center
05:59PM 43.7500 -77.9667 259° West 340 391 36,000  Level Toronto Center
06:00PM 43.7333 -78.1167 261° West 350 403 36,000  Level Toronto Center
06:01PM 43.7167 -78.2500 260° West 360 414 36,000  Level Toronto Center
06:02PM 43.7000 -78.3833 260° West 350 403 36,000  Level Toronto Center
06:03PM 43.7000 -78.5000 270° West 340 391 36,000  Level Toronto Center
06:04PM 43.7000 -78.6333 270° West 330 380 36,000  Level Toronto Center
06:05PM 43.6833 -78.7500 259° West 330 380 36,000  Level Toronto Center
06:06PM 43.6667 -78.9000 261° West 350 403 36,000  Level Toronto Center
06:07PM 43.6500 -79.0333 260° West 370 426 36,000  Level Toronto Center
06:08PM 43.6333 -79.2000 262° West 380 437 36,000  Level Toronto Center
06:09PM 43.6167 -79.3333 260° West 390 449 36,000  Level Toronto Center
06:10PM 43.6000 -79.4667 260° West 370 426 36,000  Level Toronto Center
06:11PM 43.6000 -79.6333 270° West 380 437 36,000  Level Toronto Center
06:12PM 43.5833 -79.7667 260° West 380 437 36,000  Level Toronto Center
06:13PM 43.5667 -79.9167 261° West 380 437 36,000  Level Toronto Center
06:14PM 43.5500 -80.0500 260° West 390 449 36,000  Level Toronto Center
06:15PM 43.5333 -80.2000 261° West 390 449 36,000  Level Toronto Center
06:16PM 43.5167 -80.3500 261° West 380 437 36,000  Level Toronto Center
06:17PM 43.5000 -80.5000 261° West 380 437 36,000  Level Toronto Center
06:18PM 43.5000 -80.6167 270° West 370 426 36,000  Level Toronto Center
06:19PM 43.4833 -80.7833 262° West 370 426 36,000  Level Toronto Center
06:20PM 43.4500 -80.9167 251° West 380 437 36,000  Level Toronto Center
06:21PM 43.4333 -81.0833 262° West 390 449 36,000  Level Toronto Center
06:22PM 43.4167 -81.2167 260° West 390 449 36,000  Level Toronto Center
06:23PM 43.4000 -81.3500 260° West 390 449 36,000  Level Toronto Center
06:24PM 43.3833 -81.5167 262° West 380 437 36,000  Level Toronto Center
06:25PM 43.3833 -81.6500 270° West 370 426 36,000  Level Toronto Center
06:26PM 43.3667 -81.7667 259° West 370 426 36,000  Level Toronto Center
06:27PM 43.3333 -81.9333 255° West 370 426 36,000  Level Toronto Center
06:28PM 43.3167 -82.0667 260° West 380 437 36,000  Level Toronto Center
06:29PM 43.3000 -82.2167 261° West 390 449 36,000  Level Toronto Center
06:30PM 43.2833 -82.3667 261° West 410 472 36,000  Level Toronto Center
06:31PM 43.2667 -82.5167 261° West 410 472 36,000  Level Toronto Center
06:32PM 43.2578 -82.6956 266° West 415 478 36,000 -480 Level Cleveland Center
06:33PM 43.2239 -82.8339 251° West 400 460 35,000 -1,260 Descending Cleveland Center
06:34PM 43.1858 -82.9692 249° West 407 468 33,500 -1,440 Descending Cleveland Center
06:35PM 43.1475 -83.1044 249° West 402 463 32,200 -780 Descending Cleveland Center
06:36PM 43.1111 -83.2367 249° West 390 449 32,000 -120 Descending Cleveland Center
06:37PM 43.0725 -83.3769 249° West 390 449 32,000  Level Cleveland Center
06:38PM 43.0336 -83.5144 249° West 390 449 32,000  Level Cleveland Center
06:39PM 42.9903 -83.6600 248° West 396 456 32,000  Level Cleveland Center
06:40PM 42.9592 -83.8061 254° West 407 468 32,000  Level Cleveland Center
06:41PM 42.9444 -83.9528 262° West 407 468 32,000  Level Cleveland Center
06:42PM 42.9317 -84.1025 263° West 402 463 32,000  Level Cleveland Center
06:43PM 42.9144 -84.2519 261° West 402 463 32,000  Level Cleveland Center
06:44PM 42.9011 -84.4097 263° West 402 463 32,000  Level Cleveland Center
06:46PM 42.8800 -84.6158 262° West 399 459 32,000  Level Chicago Center
06:47PM 42.8658 -84.7644 263° West 397 457 32,000  Level Chicago Center
06:48PM 42.8467 -84.9431 262° West 397 457 32,000  Level Chicago Center
06:49PM 42.8306 -85.0925 262° West 400 460 32,000  Level Chicago Center
06:50PM 42.8144 -85.2414 262° West 399 459 32,000  Level Chicago Center
06:51PM 42.7981 -85.3917 262° West 399 459 32,000 -900 Level Chicago Center
06:52PM 42.7794 -85.5372 260° West 392 451 30,200 -2,040 Descending Chicago Center
06:53PM 42.7536 -85.6831 256° West 393 452 27,900 -2,160 Descending Chicago Center
06:54PM 42.7250 -85.8353 256° West 406 467 25,700 -2,220 Descending Chicago Center
06:55PM 42.6917 -86.0181 256° West 412 474 23,300 -2,160 Descending Chicago Center
06:56PM 42.6672 -86.1575 257° West 390 449 21,300 -1,620 Descending Chicago Center
06:57PM 42.6358 -86.2922 252° West 377 434 20,000 -660 Descending Chicago Center
06:58PM 42.6031 -86.4281 252° West 377 434 20,000  Level Chicago Center
06:59PM 42.5722 -86.5672 253° West 384 442 20,000 -600 Level Chicago Center
07:00PM 42.5397 -86.7172 254° West 384 442 18,800 -1,680 Descending Chicago Center
07:01PM 42.5092 -86.8464 252° West 367 422 16,600 -2,040 Descending Chicago Center
07:02PM 42.4753 -86.9928 253° West 361 415 14,600 -1,860 Descending Chicago Center
07:03PM 42.4436 -87.1217 252° West 363 418 12,800 -1,980 Descending Chicago Center
07:04PM 42.4142 -87.2494 253° West 358 412 10,600 -1,380 Descending Chicago Center
07:05PM 42.3828 -87.3725 251° West 351 404 10,000 -240 Descending Chicago Center
07:06PM 42.3483 -87.4972 250° West 347 399 10,100  Climbing Chicago Center
07:07PM 42.2797 -87.5961 227° Southwest 369 425 10,000 -60 Descending Chicago Center
07:09PM 42.1836 -87.6994 219° Southwest 370 426 10,000  Level Chicago Center
07:10PM 42.1108 -87.7861 221° Southwest 355 409 10,000 -540 Level Chicago Center
07:11PM 42.0906 -87.8864 255° West 293 337 8,900 -1,440 Descending Chicago Center
07:12PM 42.0914 -87.9867 271° West 273 314 7,100 -1,500 Descending Chicago Center
07:13PM 42.0908 -88.0928 270° West 253 291 5,900 -1,440 Descending Chicago Center
07:14PM 42.0686 -88.1572 245° Southwest 235 270 4,200 -1,440 Descending Chicago Center
07:15PM 42.0000 -88.1167 156° South 220 253 3,000 -660 Descending Chicago TRACON
07:16PM 41.9833 -88.0667 114° Southeast 172 198 2,900 -120 Descending Chicago TRACON